Time;durP1;ratioP1;P1;durP2;ratioP2;P2;SDS_P1;SDS_P2;PMS_P1;PMS_P2;Temp;Humidity;BMP_temperature;BMP_pressure;BME280_temperature;BME280_humidity;BME280_pressure;Samples;Min_cycle;Max_cycle;Signal;HPM_P1;HPM_P2
2022/02/12 00:00:24;;;;;;;83.97;69.10;;;;;;;-0.77;100.00;101722.22;4986032;28;20060;-78
2022/02/12 00:02:53;;;;;;;81.70;73.15;;;;;;;-0.79;100.00;101721.47;4980061;28;20069;-81
2022/02/12 00:05:20;;;;;;;82.68;73.57;;;;;;;-0.82;100.00;101726.06;4982454;28;20053;-78
2022/02/12 00:07:47;;;;;;;73.03;65.45;;;;;;;-0.83;100.00;101722.63;4992780;28;20046;-80
2022/02/12 00:10:15;;;;;;;83.68;75.03;;;;;;;-0.78;100.00;101714.50;4987543;28;20526;-77
2022/02/12 00:12:44;;;;;;;77.20;69.43;;;;;;;-1.05;100.00;101720.69;4978311;28;20474;-78
2022/02/12 00:15:12;;;;;;;72.10;63.55;;;;;;;-1.01;100.00;101726.53;4981779;28;20403;-78
2022/02/12 00:17:39;;;;;;;84.90;70.43;;;;;;;-0.97;100.00;101725.38;4989271;28;20718;-78
2022/02/12 00:20:07;;;;;;;117.93;86.97;;;;;;;-1.05;100.00;101722.47;4989941;28;20462;-78
2022/02/12 00:22:34;;;;;;;115.18;77.78;;;;;;;-1.02;100.00;101724.88;4979361;28;20046;-78
2022/02/12 00:25:00;;;;;;;115.75;80.30;;;;;;;-0.88;100.00;101723.91;4978051;28;20055;-79
2022/02/12 00:27:29;;;;;;;107.80;82.18;;;;;;;-0.58;100.00;101721.75;4991953;28;20475;-78
2022/02/12 00:30:03;;;;;;;112.28;91.20;;;;;;;-0.80;100.00;101721.59;4991324;28;20097;-81
2022/02/12 00:32:32;;;;;;;100.97;79.15;;;;;;;-1.17;100.00;101722.38;4983951;28;20054;-79
2022/02/12 00:34:59;;;;;;;97.38;84.78;;;;;;;-0.67;100.00;101719.78;4991190;28;20054;-81
2022/02/12 00:37:28;;;;;;;94.75;84.43;;;;;;;-0.61;100.00;101714.13;4978444;28;20051;-77
2022/02/12 00:39:56;;;;;;;75.07;67.88;;;;;;;-0.52;100.00;101718.69;4984062;28;20043;-78
2022/02/12 00:42:24;;;;;;;75.70;68.07;;;;;;;-0.57;100.00;101715.59;4980263;28;20105;-79
2022/02/12 00:44:53;;;;;;;78.80;70.60;;;;;;;-0.37;100.00;101714.16;4977918;28;20050;-81
2022/02/12 00:47:20;;;;;;;87.10;78.05;;;;;;;-0.39;100.00;101721.28;4986967;28;20042;-79
2022/02/12 00:49:49;;;;;;;70.63;63.47;;;;;;;-0.22;100.00;101721.84;4989974;28;20109;-81
2022/02/12 00:52:17;;;;;;;70.40;63.83;;;;;;;-0.75;100.00;101720.34;4985661;28;20529;-79
2022/02/12 00:54:43;;;;;;;77.78;70.45;;;;;;;-0.56;100.00;101719.03;4986015;28;20051;-79
2022/02/12 00:57:10;;;;;;;73.13;61.88;;;;;;;0.12;100.00;101713.22;4989910;28;20042;-79
2022/02/12 00:59:37;;;;;;;74.20;61.53;;;;;;;-0.09;100.00;101717.38;4987276;28;20483;-78
2022/02/12 01:02:06;;;;;;;71.70;59.63;;;;;;;-0.40;100.00;101719.59;4984296;28;20054;-82
2022/02/12 01:04:34;;;;;;;81.28;59.95;;;;;;;-0.13;100.00;101724.59;4987273;28;20050;-79
2022/02/12 01:07:01;;;;;;;78.35;63.97;;;;;;;1.21;100.00;101722.34;4987637;28;20050;-79
2022/02/12 01:09:28;;;;;;;90.63;73.80;;;;;;;0.39;100.00;101723.38;4981911;28;20054;-79
2022/02/12 01:11:55;;;;;;;91.10;72.82;;;;;;;0.64;100.00;101718.91;4984400;28;20107;-82
2022/02/12 01:14:24;;;;;;;93.68;71.90;;;;;;;0.65;100.00;101717.97;4992416;28;20050;-78
2022/02/12 01:16:51;;;;;;;86.57;77.32;;;;;;;2.04;100.00;101720.03;4983384;28;20054;-80
2022/02/12 01:19:19;;;;;;;86.70;77.80;;;;;;;2.02;100.00;101721.09;4983775;28;20090;-78
2022/02/12 01:21:46;;;;;;;82.25;74.57;;;;;;;2.54;100.00;101719.38;4993614;28;20132;-78
2022/02/12 01:24:12;;;;;;;74.20;66.57;;;;;;;2.27;100.00;101714.69;4978197;28;20050;-78
2022/02/12 01:26:39;;;;;;;83.07;74.95;;;;;;;2.07;100.00;101716.31;4981836;28;20050;-78
2022/02/12 01:29:06;;;;;;;82.78;74.38;;;;;;;1.68;100.00;101723.84;4992983;28;20596;-79
2022/02/12 01:31:34;;;;;;;83.88;75.72;;;;;;;1.97;100.00;101718.03;4991744;28;20540;-81
2022/02/12 01:34:01;;;;;;;87.20;78.40;;;;;;;2.17;100.00;101713.75;4983268;28;20467;-78
2022/02/12 01:36:31;;;;;;;83.68;70.53;;;;;;;3.20;100.00;101719.00;4982288;28;20059;-79
2022/02/12 01:38:58;;;;;;;68.10;62.83;;;;;;;3.72;100.00;101711.78;4980921;28;20125;-81
2022/02/12 01:41:25;;;;;;;65.72;60.95;;;;;;;3.82;100.00;101719.72;4985317;28;20046;-78
2022/02/12 01:43:52;;;;;;;63.42;59.10;;;;;;;4.25;100.00;101706.13;4987511;28;20117;-79
2022/02/12 01:46:19;;;;;;;69.20;63.10;;;;;;;4.14;100.00;101706.28;4986583;28;20450;-80
2022/02/12 01:48:45;;;;;;;67.18;61.97;;;;;;;3.98;100.00;101704.22;4991986;28;20050;-79
2022/02/12 01:51:13;;;;;;;71.38;66.03;;;;;;;4.23;100.00;101701.97;4982499;28;20055;-78
2022/02/12 01:53:42;;;;;;;64.15;59.65;;;;;;;4.41;100.00;101708.19;4984156;28;20107;-80
2022/02/12 01:56:08;;;;;;;64.15;59.33;;;;;;;4.65;100.00;101715.59;4981149;28;20057;-81
2022/02/12 01:58:35;;;;;;;64.55;59.97;;;;;;;4.92;100.00;101714.00;4991257;28;20050;-78
2022/02/12 02:01:02;;;;;;;63.40;58.25;;;;;;;4.57;100.00;101716.31;4991477;28;20046;-79
2022/02/12 02:03:29;;;;;;;63.75;58.72;;;;;;;5.14;100.00;101723.31;4986290;28;20050;-81
2022/02/12 02:05:56;;;;;;;60.33;55.90;;;;;;;5.32;100.00;101729.47;4988612;28;20105;-78
2022/02/12 02:08:25;;;;;;;59.75;55.10;;;;;;;5.08;100.00;101735.25;4992352;28;20134;-82
2022/02/12 02:10:54;;;;;;;59.50;54.90;;;;;;;4.86;100.00;101746.16;4987338;28;20050;-77
2022/02/12 02:13:23;;;;;;;59.03;54.63;;;;;;;5.07;100.00;101743.31;4993359;28;20062;-81
2022/02/12 02:15:50;;;;;;;70.40;65.45;;;;;;;4.92;100.00;101750.84;4988569;28;20050;-78
2022/02/12 02:18:17;;;;;;;65.28;60.40;;;;;;;4.98;100.00;101753.75;4984022;28;20092;-81
2022/02/12 02:20:44;;;;;;;57.17;53.03;;;;;;;5.24;100.00;101753.94;4989012;28;20467;-78
2022/02/12 02:23:12;;;;;;;59.67;55.03;;;;;;;5.23;100.00;101762.81;4989039;28;20499;-80
2022/02/12 02:25:40;;;;;;;59.33;54.95;;;;;;;5.28;100.00;101757.09;4990140;28;20058;-81
2022/02/12 02:28:07;;;;;;;65.18;60.63;;;;;;;5.15;100.00;101754.81;4997736;28;20054;-82
2022/02/12 02:30:36;;;;;;;61.78;57.15;;;;;;;5.27;100.00;101755.44;4992172;28;20116;-81
2022/02/12 02:33:03;;;;;;;66.68;62.17;;;;;;;5.23;100.00;101764.59;4987635;28;20090;-79
2022/02/12 02:35:30;;;;;;;65.93;61.53;;;;;;;5.47;100.00;101758.78;4991317;28;20112;-78
2022/02/12 02:38:04;;;;;;;63.55;59.13;;;;;;;5.56;100.00;101757.91;4989634;28;20046;-77
2022/02/12 02:40:33;;;;;;;63.65;59.08;;;;;;;5.50;100.00;101761.97;4988933;28;20133;-82
2022/02/12 02:43:00;;;;;;;62.47;58.30;;;;;;;5.68;100.00;101762.00;4990706;28;20055;-81
2022/02/12 02:45:29;;;;;;;63.80;59.60;;;;;;;5.63;100.00;101769.53;4987145;28;20054;-82
2022/02/12 02:47:58;;;;;;;59.58;55.30;;;;;;;5.38;100.00;101771.03;4988137;28;20082;-79
2022/02/12 02:56:02;;;;;;;54.17;49.95;;;;;;;5.67;100.00;101783.25;4993048;28;20054;-79
2022/02/12 02:58:33;;;;;;;55.35;51.58;;;;;;;5.77;100.00;101791.91;4989923;28;20500;-78
2022/02/12 03:01:01;;;;;;;63.20;58.38;;;;;;;5.55;100.00;101790.53;5099698;23;20405;-81
2022/02/12 03:03:29;;;;;;;64.30;59.63;;;;;;;5.72;100.00;101791.56;5022184;28;20057;-77
2022/02/12 03:05:56;;;;;;;61.28;56.80;;;;;;;5.61;100.00;101794.38;5024809;28;20060;-78
2022/02/12 03:08:23;;;;;;;65.55;60.55;;;;;;;5.57;100.00;101798.28;5028382;28;20049;-77
2022/02/12 03:10:50;;;;;;;68.70;63.53;;;;;;;5.66;100.00;101800.06;5025493;28;20058;-77
2022/02/12 03:13:18;;;;;;;64.70;60.25;;;;;;;5.60;100.00;101808.50;5018875;28;20444;-79
2022/02/12 03:15:45;;;;;;;69.38;64.80;;;;;;;5.81;100.00;101809.13;5027440;28;20096;-80
2022/02/12 03:18:12;;;;;;;70.15;65.38;;;;;;;5.80;100.00;101817.16;5026017;28;20590;-78
2022/02/12 03:20:38;;;;;;;63.28;59.10;;;;;;;5.73;100.00;101806.38;5026360;28;20108;-78
2022/02/12 03:23:06;;;;;;;57.60;53.58;;;;;;;5.70;100.00;101811.94;5021321;28;20053;-79
2022/02/12 03:25:33;;;;;;;62.10;58.10;;;;;;;5.85;100.00;101813.09;5020679;28;20050;-79
2022/02/12 03:28:02;;;;;;;63.22;59.05;;;;;;;5.84;100.00;101815.88;5023532;28;20463;-78
2022/02/12 03:30:32;;;;;;;62.88;58.60;;;;;;;5.98;100.00;101815.41;5021432;28;20060;-81
2022/02/12 03:32:58;;;;;;;70.40;65.80;;;;;;;5.82;100.00;101823.94;5026441;28;20195;-78
2022/02/12 03:35:26;;;;;;;64.68;60.33;;;;;;;5.84;100.00;101827.28;5026593;28;20061;-77
2022/02/12 03:37:54;;;;;;;65.32;61.10;;;;;;;5.82;100.00;101831.88;5023100;28;20143;-80
2022/02/12 03:40:22;;;;;;;64.80;60.38;;;;;;;5.95;100.00;101840.28;5028499;28;20593;-77
2022/02/12 03:42:48;;;;;;;63.97;59.47;;;;;;;6.21;100.00;101838.75;5025465;28;20090;-78
2022/02/12 03:45:16;;;;;;;67.13;62.92;;;;;;;6.04;100.00;101843.81;5024456;28;20481;-79
2022/02/12 03:47:44;;;;;;;63.38;59.22;;;;;;;6.02;100.00;101840.53;5023929;28;20493;-77
2022/02/12 03:50:11;;;;;;;64.53;60.15;;;;;;;5.83;100.00;101853.78;5027192;28;20481;-77
2022/02/12 03:52:38;;;;;;;60.58;56.25;;;;;;;5.78;100.00;101848.09;5026618;28;20060;-78
2022/02/12 03:55:06;;;;;;;60.10;55.95;;;;;;;5.90;100.00;101849.56;5019879;28;20551;-78
2022/02/12 03:57:33;;;;;;;66.70;62.00;;;;;;;5.59;100.00;101849.88;5016893;28;20042;-78
2022/02/12 03:59:59;;;;;;;63.35;58.80;;;;;;;5.57;100.00;101850.97;5026760;28;20049;-78
2022/02/12 04:02:27;;;;;;;66.55;61.92;;;;;;;5.81;100.00;101846.03;5026224;28;20111;-78
2022/02/12 04:04:55;;;;;;;58.88;54.53;;;;;;;5.47;100.00;101854.47;5025992;28;20053;-81
2022/02/12 04:07:21;;;;;;;64.10;59.60;;;;;;;5.51;100.00;101850.59;5024434;28;20065;-81
2022/02/12 04:09:48;;;;;;;58.83;54.33;;;;;;;5.37;100.00;101853.69;5023940;28;20130;-78
2022/02/12 04:12:15;;;;;;;57.30;53.05;;;;;;;5.48;100.00;101856.16;5019000;28;20442;-81
2022/02/12 04:14:42;;;;;;;54.42;50.80;;;;;;;5.40;100.00;101850.78;5020525;28;20042;-78
2022/02/12 04:17:08;;;;;;;68.13;63.17;;;;;;;5.39;100.00;101872.00;5028707;28;20088;-77
2022/02/12 04:19:35;;;;;;;60.58;56.47;;;;;;;5.28;100.00;101873.00;5021244;28;20458;-81
2022/02/12 04:22:04;;;;;;;61.80;56.45;;;;;;;5.25;100.00;101876.75;5030128;28;20115;-77
2022/02/12 04:24:31;;;;;;;67.15;62.20;;;;;;;5.17;100.00;101889.78;5020905;28;20559;-78
2022/02/12 04:26:57;;;;;;;66.47;60.97;;;;;;;5.08;100.00;101872.22;5025601;28;20482;-79
2022/02/12 04:29:24;;;;;;;58.13;54.22;;;;;;;5.22;100.00;101876.22;5017155;28;20045;-79
2022/02/12 04:31:51;;;;;;;64.60;60.25;;;;;;;4.99;100.00;101884.44;5024300;28;20045;-78
2022/02/12 04:34:19;;;;;;;62.10;57.40;;;;;;;5.01;100.00;101893.00;5023543;28;20491;-77
2022/02/12 04:36:47;;;;;;;62.05;57.95;;;;;;;4.85;100.00;101898.03;5026349;28;20458;-80
2022/02/12 04:39:15;;;;;;;59.38;54.85;;;;;;;4.90;100.00;101905.50;5026614;28;20054;-81
2022/02/12 04:41:42;;;;;;;63.95;59.53;;;;;;;4.77;100.00;101903.16;5020103;28;20054;-77
2022/02/12 04:44:11;;;;;;;67.38;62.60;;;;;;;4.81;100.00;101902.75;5028196;28;20061;-78
2022/02/12 04:46:38;;;;;;;55.95;51.83;;;;;;;4.89;100.00;101912.56;5023120;28;20272;-81
2022/02/12 04:49:05;;;;;;;56.47;52.17;;;;;;;4.98;100.00;101918.78;5023697;28;20401;-78
2022/02/12 04:51:32;;;;;;;54.80;50.20;;;;;;;4.85;100.00;101927.00;5023697;28;20054;-82
2022/02/12 04:53:59;;;;;;;52.58;48.72;;;;;;;4.93;100.00;101929.75;5027787;28;20635;-80
2022/02/12 04:56:27;;;;;;;52.28;48.28;;;;;;;5.46;100.00;101929.25;5022769;28;20152;-78
2022/02/12 04:58:54;;;;;;;52.42;48.72;;;;;;;5.75;100.00;101930.97;5019239;28;20053;-80
2022/02/12 05:01:24;;;;;;;58.30;54.13;;;;;;;4.94;100.00;101933.22;5020092;28;20501;-79
2022/02/12 05:03:51;;;;;;;56.05;51.67;;;;;;;4.91;100.00;101933.50;5025995;28;20449;-80
2022/02/12 05:06:19;;;;;;;56.95;52.58;;;;;;;5.06;100.00;101940.00;5016540;28;20119;-78
2022/02/12 05:08:46;;;;;;;52.75;48.75;;;;;;;4.78;100.00;101942.50;5023603;28;20054;-79
2022/02/12 05:11:14;;;;;;;57.50;52.60;;;;;;;4.71;100.00;101943.19;5024116;28;20061;-81
2022/02/12 05:13:42;;;;;;;54.75;50.60;;;;;;;4.91;100.00;101951.94;5023384;28;20123;-77
2022/02/12 05:16:09;;;;;;;57.08;52.65;;;;;;;4.81;100.00;101959.81;5026068;28;20053;-79
2022/02/12 05:18:36;;;;;;;61.42;56.95;;;;;;;4.93;100.00;101953.47;5021994;28;20127;-78
2022/02/12 05:21:03;;;;;;;57.78;53.30;;;;;;;4.94;100.00;101972.72;5015610;28;20054;-79
2022/02/12 05:23:29;;;;;;;54.38;50.13;;;;;;;5.14;100.00;101971.72;5020036;28;20542;-79
2022/02/12 05:25:56;;;;;;;53.72;50.08;;;;;;;5.48;100.00;101973.94;5024609;28;20466;-78
2022/02/12 05:28:23;;;;;;;52.10;47.97;;;;;;;4.93;100.00;101971.03;5018348;28;20453;-78
2022/02/12 05:30:51;;;;;;;55.13;50.17;;;;;;;4.78;100.00;101975.88;5025435;28;20061;-81
2022/02/12 05:33:18;;;;;;;57.10;52.92;;;;;;;5.03;100.00;101985.88;5024753;28;20122;-78
2022/02/12 05:35:45;;;;;;;56.17;51.97;;;;;;;4.84;100.00;101988.47;5014503;28;20096;-78
2022/02/12 05:38:12;;;;;;;53.63;50.15;;;;;;;5.03;100.00;101993.78;5022337;28;20115;-79
2022/02/12 05:40:39;;;;;;;60.35;56.25;;;;;;;4.74;100.00;102006.91;5017190;28;20497;-78
2022/02/12 05:43:06;;;;;;;58.50;53.83;;;;;;;4.72;100.00;102013.28;5012938;28;20054;-77
2022/02/12 05:45:33;;;;;;;58.22;53.35;;;;;;;4.79;100.00;102011.78;4953620;28;20118;-80
2022/02/12 05:48:01;;;;;;;51.97;48.22;;;;;;;5.11;100.00;102016.78;5023672;28;20478;-79
2022/02/12 05:50:29;;;;;;;59.58;54.97;;;;;;;5.01;100.00;102016.78;5021001;28;20118;-80
2022/02/12 05:52:57;;;;;;;58.35;53.83;;;;;;;5.18;100.00;102032.88;5021016;28;20045;-81
2022/02/12 05:55:24;;;;;;;54.28;50.17;;;;;;;5.34;100.00;102040.22;5020968;28;20050;-78
2022/02/12 05:57:58;;;;;;;55.53;51.00;;;;;;;5.64;100.00;102049.78;5031707;28;20057;-82
2022/02/12 06:00:25;;;;;;;52.88;48.97;;;;;;;5.41;100.00;102057.13;5016851;28;20052;-78
2022/02/12 06:02:52;;;;;;;55.78;51.67;;;;;;;5.27;100.00;102058.41;5013582;28;20506;-79
2022/02/12 06:05:20;;;;;;;57.22;52.97;;;;;;;5.25;100.00;102070.88;5020424;28;20042;-78
2022/02/12 06:07:47;;;;;;;54.40;50.83;;;;;;;5.25;100.00;102074.31;5019091;28;20050;-77
2022/02/12 06:10:14;;;;;;;57.53;53.15;;;;;;;5.03;100.00;102079.84;5023505;28;20041;-77
2022/02/12 06:12:41;;;;;;;59.05;54.38;;;;;;;5.13;100.00;102088.59;5032024;28;20145;-81
2022/02/12 06:15:09;;;;;;;59.47;55.38;;;;;;;5.00;100.00;102096.75;5024111;28;20050;-78
2022/02/12 06:17:36;;;;;;;58.65;54.08;;;;;;;5.18;100.00;102093.47;5016279;28;20111;-79
2022/02/12 06:20:04;;;;;;;53.75;49.42;;;;;;;5.27;100.00;102095.28;5019334;28;20046;-78
2022/02/12 06:22:32;;;;;;;51.65;47.92;;;;;;;5.61;100.00;102106.22;5028810;28;20473;-80
2022/02/12 06:24:59;;;;;;;55.00;50.67;;;;;;;5.33;100.00;102113.16;5024855;28;20104;-80
2022/02/12 06:27:26;;;;;;;52.00;47.95;;;;;;;5.14;100.00;102124.47;5022388;28;20132;-79
2022/02/12 06:29:53;;;;;;;53.65;49.40;;;;;;;5.60;100.00;102128.31;5015580;28;20050;-78
2022/02/12 06:32:21;;;;;;;55.95;51.65;;;;;;;5.22;100.00;102132.56;5024099;28;20068;-81
2022/02/12 06:34:47;;;;;;;58.88;53.55;;;;;;;5.35;100.00;102134.91;5023535;28;20486;-81
2022/02/12 06:37:14;;;;;;;59.08;54.10;;;;;;;5.67;100.00;102144.38;5018666;28;20516;-77
2022/02/12 06:39:42;;;;;;;55.40;51.10;;;;;;;5.70;100.00;102158.13;5015027;28;20128;-79
2022/02/12 06:42:09;;;;;;;53.83;49.72;;;;;;;5.84;100.00;102156.88;5025286;28;20464;-78
2022/02/12 06:44:37;;;;;;;56.45;51.65;;;;;;;5.84;100.00;102159.53;5028396;28;20053;-78
2022/02/12 06:47:04;;;;;;;51.70;47.28;;;;;;;5.88;100.00;102158.25;5022365;28;20128;-78
2022/02/12 06:49:31;;;;;;;57.47;52.63;;;;;;;6.10;100.00;102164.22;5025661;28;20485;-79
2022/02/12 06:51:58;;;;;;;58.38;53.53;;;;;;;5.91;100.00;102170.34;5025037;28;20045;-77
2022/02/12 06:54:24;;;;;;;57.10;52.63;;;;;;;5.83;100.00;102178.94;5025775;28;20054;-79
2022/02/12 06:56:53;;;;;;;55.72;51.50;;;;;;;6.06;100.00;102171.59;5023685;28;20046;-81
2022/02/12 06:59:20;;;;;;;54.13;49.60;;;;;;;6.43;100.00;102181.38;5026077;28;20057;-79
2022/02/12 07:01:46;;;;;;;57.05;52.60;;;;;;;6.33;100.00;102177.94;5021589;28;20441;-81
2022/02/12 07:04:14;;;;;;;58.08;53.35;;;;;;;6.58;100.00;102181.75;5026105;28;20092;-79
2022/02/12 07:06:41;;;;;;;57.42;52.75;;;;;;;6.17;100.00;102182.00;5028326;28;20049;-81
2022/02/12 07:09:07;;;;;;;54.58;50.63;;;;;;;6.65;100.00;102191.59;5023339;28;20049;-81
2022/02/12 07:11:35;;;;;;;56.72;52.72;;;;;;;6.36;100.00;102191.69;5015279;28;20466;-77
2022/02/12 07:14:03;;;;;;;48.35;45.25;;;;;;;6.66;100.00;102197.72;4993234;28;20559;-78
2022/02/12 07:16:30;;;;;;;57.80;53.20;;;;;;;6.43;100.00;102203.31;5019334;28;20045;-78
2022/02/12 07:18:57;;;;;;;57.95;53.38;;;;;;;6.75;100.00;102207.44;5022564;28;20417;-82
2022/02/12 07:21:24;;;;;;;57.83;53.20;;;;;;;6.94;100.00;102214.44;5016136;28;20057;-78
2022/02/12 07:23:50;;;;;;;56.33;51.45;;;;;;;6.71;100.00;102219.22;5022228;28;20049;-77
2022/02/12 07:26:17;;;;;;;56.38;51.80;;;;;;;7.42;100.00;102225.75;5021680;28;20103;-78
2022/02/12 07:28:44;;;;;;;54.78;51.00;;;;;;;6.97;100.00;102221.25;5014969;28;20449;-80
2022/02/12 07:31:13;;;;;;;59.10;54.70;;;;;;;7.34;100.00;102229.94;5020513;28;20050;-78
2022/02/12 07:33:40;;;;;;;55.65;51.65;;;;;;;7.07;100.00;102225.50;5023382;28;20541;-78
2022/02/12 07:36:07;;;;;;;61.20;56.78;;;;;;;7.54;100.00;102230.69;5018822;28;20053;-78
2022/02/12 07:38:34;;;;;;;56.42;52.25;;;;;;;7.75;100.00;102227.75;5019258;28;20049;-79
2022/02/12 07:41:01;;;;;;;55.90;52.00;;;;;;;7.73;100.00;102232.34;5018206;28;20054;-79
2022/02/12 07:43:28;;;;;;;56.72;52.42;;;;;;;7.41;100.00;102234.63;5016271;28;20120;-81
2022/02/12 07:45:55;;;;;;;57.22;52.95;;;;;;;8.54;100.00;102244.66;5023531;28;20046;-78
2022/02/12 07:48:23;;;;;;;56.05;52.22;;;;;;;8.46;100.00;102239.28;5022145;28;20548;-80
2022/02/12 07:50:53;;;;;;;56.03;51.78;;;;;;;8.29;100.00;102248.03;5028202;28;20481;-80
2022/02/12 07:53:20;;;;;;;51.50;47.90;;;;;;;8.45;100.00;102249.06;5024595;28;20064;-80
2022/02/12 07:55:46;;;;;;;51.75;48.25;;;;;;;8.71;100.00;102257.00;5023936;28;20465;-77
2022/02/12 07:58:13;;;;;;;56.50;52.50;;;;;;;8.50;100.00;102245.91;5032266;28;20061;-79
2022/02/12 08:00:40;;;;;;;57.47;53.47;;;;;;;9.62;100.00;102242.31;5023109;28;20060;-80
2022/02/12 08:03:07;;;;;;;55.28;51.60;;;;;;;8.85;100.00;102250.28;5015865;28;20046;-79
2022/02/12 08:05:35;;;;;;;55.83;52.17;;;;;;;8.55;100.00;102256.06;5023657;28;20498;-77
2022/02/12 08:08:03;;;;;;;49.42;46.08;;;;;;;8.73;100.00;102269.25;5023901;28;20064;-77
2022/02/12 08:13:14;;;;;;;51.63;47.92;;;;;;;8.93;100.00;102297.22;5013258;28;20045;-79
2022/02/12 08:15:53;;;;;;;53.88;50.25;;;;;;;9.97;100.00;102306.75;5028510;28;20041;-80
2022/02/12 08:18:30;;;;;;;51.20;47.80;;;;;;;9.18;100.00;102322.03;5029827;28;20061;-80
2022/02/12 08:20:59;;;;;;;47.88;45.10;;;;;;;9.06;100.00;102337.38;5037302;28;20042;-79
2022/02/12 08:23:26;;;;;;;52.63;48.92;;;;;;;9.71;100.00;102320.09;5033994;28;20049;-77
2022/02/12 08:25:53;;;;;;;51.50;48.05;;;;;;;9.07;100.00;102324.94;5026694;28;20104;-79
2022/02/12 08:28:20;;;;;;;51.30;47.97;;;;;;;10.29;100.00;102327.25;5042461;28;20042;-81
2022/02/12 08:30:46;;;;;;;50.47;46.92;;;;;;;9.35;100.00;102336.22;5033358;28;20046;-78
2022/02/12 08:33:13;;;;;;;48.28;44.67;;;;;;;8.97;100.00;102348.09;5032004;28;20064;-79
2022/02/12 08:35:41;;;;;;;50.28;46.85;;;;;;;8.68;100.00;102335.94;5027339;28;20127;-79
2022/02/12 08:38:09;;;;;;;50.40;47.35;;;;;;;9.01;100.00;102341.47;5030221;28;20144;-80
2022/02/12 08:40:36;;;;;;;50.75;47.25;;;;;;;9.50;100.00;102347.03;5026939;28;20054;-79
2022/02/12 08:43:02;;;;;;;47.10;44.10;;;;;;;8.48;100.00;102349.38;5032092;28;20452;-79
2022/02/12 08:45:29;;;;;;;51.22;47.50;;;;;;;8.66;100.00;102343.22;5026489;28;20054;-78
2022/02/12 08:48:07;;;;;;;68.75;63.92;;;;;;;8.38;100.00;102331.84;5025796;28;20428;-82
2022/02/12 08:50:34;;;;;;;66.30;61.67;;;;;;;8.90;100.00;102334.63;5029352;28;20046;-80
2022/02/12 08:53:01;;;;;;;72.18;66.65;;;;;;;9.43;100.00;102338.88;5042183;28;20084;-79
2022/02/12 08:55:46;;;;;;;75.75;69.88;;;;;;;8.91;100.00;102331.81;5022301;28;20355;-83
2022/02/12 08:58:12;;;;;;;77.47;71.30;;;;;;;9.12;100.00;102346.53;5035186;28;20453;-78
2022/02/12 09:00:39;;;;;;;74.07;68.45;;;;;;;9.18;100.00;102357.31;5030199;28;20103;-81
2022/02/12 09:03:11;;;;;;;74.95;69.20;;;;;;;9.54;100.00;102364.31;5035073;28;20049;-80
2022/02/12 09:05:38;;;;;;;71.47;66.38;;;;;;;8.86;100.00;102359.75;5028671;28;20057;-79
2022/02/12 09:08:05;;;;;;;77.18;70.60;;;;;;;8.62;100.00;102371.84;5027141;28;20049;-78
2022/02/12 09:10:32;;;;;;;84.32;77.35;;;;;;;9.30;100.00;102375.63;5023207;28;20038;-79
2022/02/12 09:13:00;;;;;;;85.07;77.50;;;;;;;8.73;100.00;102380.53;5028309;28;20037;-83
2022/02/12 09:15:27;;;;;;;80.30;73.57;;;;;;;8.51;100.00;102371.25;5025236;28;20050;-79
2022/02/12 09:17:54;;;;;;;73.57;67.80;;;;;;;8.56;100.00;102375.06;5029264;28;20045;-79
2022/02/12 09:20:27;;;;;;;76.40;70.15;;;;;;;8.73;100.00;102375.22;5025561;28;20049;-82
2022/02/12 09:22:54;;;;;;;76.68;70.55;;;;;;;8.51;100.00;102371.25;5027150;28;20060;-79
2022/02/12 09:25:21;;;;;;;80.20;73.80;;;;;;;9.54;100.00;102372.28;5025312;28;20107;-79
2022/02/12 09:27:49;;;;;;;78.75;72.35;;;;;;;9.09;100.00;102376.00;5026656;28;20072;-80
2022/02/12 09:30:17;;;;;;;78.65;72.22;;;;;;;9.98;100.00;102367.63;5036952;28;20038;-79
2022/02/12 09:32:44;;;;;;;82.50;75.43;;;;;;;9.05;100.00;102369.34;5031777;28;20481;-82
2022/02/12 09:35:11;;;;;;;77.90;71.22;;;;;;;9.38;100.00;102375.69;5034843;28;20064;-80
2022/02/12 09:37:39;;;;;;;82.45;75.75;;;;;;;10.32;100.00;102378.19;5029509;28;20042;-82
2022/02/12 09:40:14;;;;;;;75.93;69.93;;;;;;;10.09;100.00;102375.28;5024805;28;20391;-81
2022/02/12 09:42:51;;;;;;;76.22;69.97;;;;;;;10.18;100.00;102388.59;5026768;28;20061;-80
2022/02/12 09:45:19;;;;;;;77.07;70.97;;;;;;;8.68;100.00;102383.63;5022354;28;20049;-80
2022/02/12 09:47:47;;;;;;;78.40;72.25;;;;;;;9.06;100.00;102393.03;5028688;28;20107;-78
2022/02/12 09:50:15;;;;;;;80.10;73.70;;;;;;;10.49;100.00;102384.34;5034562;28;20064;-78
2022/02/12 09:52:47;;;;;;;78.32;72.28;;;;;;;12.25;100.00;102387.06;5024367;28;20054;-79
2022/02/12 09:55:14;;;;;;;80.43;74.20;;;;;;;12.72;100.00;102386.88;5037644;28;20064;-79
2022/02/12 09:57:40;;;;;;;81.75;75.45;;;;;;;11.42;100.00;102394.56;5047337;28;20057;-79
2022/02/12 10:00:14;;;;;;;77.68;71.63;;;;;;;11.79;100.00;102397.59;5029331;28;20045;-79
2022/02/12 10:02:42;;;;;;;73.45;68.15;;;;;;;11.82;100.00;102407.91;5026182;28;20140;-78
2022/02/12 10:05:26;;;;;;;74.28;69.25;;;;;;;11.51;100.00;102402.53;5033968;28;20053;-79
2022/02/12 10:08:12;;;;;;;76.40;70.65;;;;;;;11.06;100.00;102401.28;5041264;28;20041;-80
2022/02/12 10:10:40;;;;;;;76.60;70.68;;;;;;;10.89;100.00;102398.66;5031559;28;20045;-78
2022/02/12 10:13:12;;;;;;;78.88;72.75;;;;;;;10.87;100.00;102405.13;5019088;28;20061;-79
2022/02/12 10:15:40;;;;;;;78.15;72.20;;;;;;;9.50;100.00;102400.94;5029272;28;20026;-80
2022/02/12 10:18:08;;;;;;;78.13;71.97;;;;;;;10.09;100.00;102404.50;5024155;28;20457;-79
2022/02/12 10:20:38;;;;;;;76.35;70.40;;;;;;;10.42;100.00;102396.63;5034151;28;20133;-79
2022/02/12 10:23:10;;;;;;;78.78;72.47;;;;;;;10.06;100.00;102401.31;5027916;28;20053;-79
2022/02/12 10:25:38;;;;;;;78.25;72.22;;;;;;;10.16;100.00;102396.69;5030995;28;20438;-78
2022/02/12 10:28:06;;;;;;;81.30;74.50;;;;;;;9.76;100.00;102397.41;5031539;28;20041;-80
2022/02/12 10:30:37;;;;;;;83.40;76.05;;;;;;;10.03;100.00;102399.00;5046218;23;20045;-95
2022/02/12 10:33:06;;;;;;;79.20;72.97;;;;;;;9.81;100.00;102401.25;5069109;28;20113;-92
2022/02/12 10:35:38;;;;;;;80.43;73.72;;;;;;;10.72;100.00;102392.50;5068864;28;20315;-91
2022/02/12 10:38:10;;;;;;;81.90;75.15;;;;;;;11.46;100.00;102392.38;5068984;28;20049;-93
2022/02/12 10:40:39;;;;;;;79.80;73.15;;;;;;;11.26;100.00;102393.78;5070174;28;20043;-92
2022/02/12 10:43:10;;;;;;;76.68;70.97;;;;;;;11.35;100.00;102401.56;5069045;28;20045;-93
2022/02/12 10:45:44;;;;;;;81.05;74.47;;;;;;;10.61;100.00;102395.47;5066463;28;20043;-92
2022/02/12 10:48:13;;;;;;;82.03;75.15;;;;;;;10.46;100.00;102397.13;5063947;28;20074;-92
2022/02/12 10:50:46;;;;;;;85.55;78.20;;;;;;;10.50;100.00;102394.00;5067883;28;20064;-94
2022/02/12 10:53:17;;;;;;;84.97;77.30;;;;;;;10.61;100.00;102395.47;5066098;28;20110;-92
2022/02/12 10:55:45;;;;;;;86.05;78.20;;;;;;;10.03;100.00;102394.50;5068757;28;20045;-93
2022/02/12 10:58:16;;;;;;;86.53;78.88;;;;;;;10.48;100.00;102397.81;5061161;28;20041;-92
2022/02/12 11:00:48;;;;;;;84.10;76.32;;;;;;;10.20;100.00;102392.75;5066335;28;20052;-93
2022/02/12 11:03:16;;;;;;;86.50;78.43;;;;;;;10.05;100.00;102394.38;5067855;28;20132;-93
2022/02/12 11:05:57;;;;;;;82.20;75.07;;;;;;;10.05;100.00;102400.50;5067227;28;20069;-92
2022/02/12 11:08:25;;;;;;;84.10;77.28;;;;;;;9.80;100.00;102404.91;5067923;28;20115;-93
2022/02/12 11:10:54;;;;;;;85.53;78.47;;;;;;;9.67;100.00;102404.50;5068174;28;20065;-93
2022/02/12 11:13:30;;;;;;;83.10;76.15;;;;;;;9.51;100.00;102407.91;5061717;28;20053;-93
2022/02/12 11:15:59;;;;;;;89.65;82.10;;;;;;;9.29;100.00;102400.47;5070679;28;20048;-93
2022/02/12 11:18:32;;;;;;;90.18;82.57;;;;;;;9.44;100.00;102411.31;5061884;28;20044;-93